createdAt,value
2018-03-23T00:01:32.890Z,75.92
2018-03-23T00:04:01.981Z,76.03
2018-03-23T00:06:31.088Z,76.12
2018-03-23T00:09:00.220Z,76.18
2018-03-23T00:11:28.528Z,76.11
2018-03-23T00:13:56.846Z,76.14
2018-03-23T00:16:25.204Z,76.27
2018-03-23T00:18:53.508Z,76.33
2018-03-23T00:21:22.602Z,76.34
2018-03-23T00:23:50.918Z,76.32
2018-03-23T00:26:19.244Z,76.26
2018-03-23T00:28:47.556Z,76.37
2018-03-23T00:31:15.870Z,76.36
2018-03-23T00:33:44.194Z,76.41
2018-03-23T00:36:12.516Z,76.53
2018-03-23T00:38:41.590Z,76.54
2018-03-23T00:41:09.916Z,76.54
2018-03-23T00:43:38.318Z,76.59
2018-03-23T00:46:06.624Z,76.56
2018-03-23T00:48:34.954Z,76.61
2018-03-23T00:51:03.311Z,76.70
2018-03-23T00:53:32.387Z,76.73
2018-03-23T00:56:00.708Z,76.72
2018-03-23T00:58:29.812Z,76.57
2018-03-23T01:00:58.172Z,76.52
2018-03-23T01:03:26.490Z,76.60
2018-03-23T01:05:54.812Z,76.63
2018-03-23T01:08:23.128Z,76.65
2018-03-23T01:10:52.337Z,76.65
2018-03-23T01:13:21.425Z,76.56
2018-03-23T01:15:49.740Z,76.49
2018-03-23T01:18:18.053Z,76.62
2018-03-23T01:20:46.390Z,76.56
2018-03-23T01:23:15.486Z,76.69
2018-03-23T01:25:44.576Z,76.71
2018-03-23T01:28:12.892Z,76.85
2018-03-23T01:30:42.058Z,76.74
2018-03-23T01:33:11.146Z,76.85
2018-03-23T01:35:39.460Z,76.85
2018-03-23T01:38:07.810Z,76.86
2018-03-23T01:40:36.145Z,76.91
2018-03-23T01:43:04.484Z,76.97
2018-03-23T01:45:32.793Z,76.99
2018-03-23T01:48:01.105Z,76.93
2018-03-23T01:50:29.422Z,76.97
2018-03-23T01:52:57.738Z,76.90
2018-03-23T01:55:26.071Z,76.90
2018-03-23T01:57:54.423Z,76.90
2018-03-23T02:00:22.738Z,76.59
2018-03-23T02:02:51.106Z,76.66
2018-03-23T02:05:19.619Z,76.70
2018-03-23T02:07:48.712Z,76.52
2018-03-23T02:10:17.105Z,76.46
2018-03-23T02:12:46.230Z,76.33
2018-03-23T02:15:15.340Z,76.22
2018-03-23T02:17:43.670Z,76.00
2018-03-23T02:20:11.975Z,75.96
2018-03-23T02:22:40.304Z,75.98
2018-03-23T02:25:08.619Z,76.03
2018-03-23T02:27:36.937Z,75.94
2018-03-23T02:30:06.029Z,75.77
2018-03-23T02:32:34.366Z,75.62
2018-03-23T02:35:02.697Z,75.60
2018-03-23T02:37:31.781Z,75.47
2018-03-23T02:40:00.110Z,75.38
2018-03-23T02:42:28.452Z,75.42
2018-03-23T02:44:57.634Z,75.51
2018-03-23T02:47:25.975Z,75.46
2018-03-23T02:49:54.320Z,75.44
2018-03-23T02:52:22.632Z,75.27
2018-03-23T02:54:50.999Z,75.44
2018-03-23T02:57:20.683Z,75.40
2018-03-23T02:59:49.026Z,75.48
2018-03-23T03:02:17.352Z,75.49
2018-03-23T03:04:45.664Z,75.34
2018-03-23T03:07:14.021Z,75.27
2018-03-23T03:09:42.446Z,75.17
2018-03-23T03:12:10.773Z,75.05
2018-03-23T03:14:39.106Z,74.95
2018-03-23T03:17:07.471Z,75.04
2018-03-23T03:19:36.622Z,75.00
2018-03-23T03:22:04.948Z,75.06
2018-03-23T03:24:34.046Z,74.78
2018-03-23T03:27:02.470Z,74.67
2018-03-23T03:29:30.787Z,74.56
2018-03-23T03:31:59.107Z,74.60
2018-03-23T03:34:28.208Z,74.59
2018-03-23T03:36:56.579Z,74.46
2018-03-23T03:39:25.706Z,74.30
2018-03-23T03:41:54.030Z,74.11
2018-03-23T03:44:22.395Z,73.98
2018-03-23T03:46:50.701Z,73.94
2018-03-23T03:49:19.021Z,73.92
2018-03-23T03:51:48.087Z,73.82
2018-03-23T03:54:16.427Z,73.74
2018-03-23T03:56:44.745Z,73.67
2018-03-23T03:59:13.068Z,73.66
2018-03-23T04:01:42.150Z,73.72
2018-03-23T04:04:10.470Z,73.65
2018-03-23T04:06:39.535Z,73.72
2018-03-23T04:09:07.857Z,73.87
2018-03-23T04:11:36.167Z,73.86
2018-03-23T04:14:04.494Z,74.00
2018-03-23T04:16:33.590Z,73.89
2018-03-23T04:19:02.679Z,73.79
2018-03-23T04:21:31.029Z,73.81
2018-03-23T04:23:59.395Z,73.79
2018-03-23T04:26:27.703Z,73.67
2018-03-23T04:28:56.093Z,73.57
2018-03-23T04:31:24.393Z,73.49
2018-03-23T04:33:52.725Z,73.38
2018-03-23T04:36:21.070Z,73.26
2018-03-23T04:38:50.137Z,73.31
2018-03-23T04:41:18.533Z,73.26
2018-03-23T04:43:46.839Z,73.47
2018-03-23T04:46:15.172Z,73.67
2018-03-23T04:48:43.532Z,73.86
2018-03-23T04:51:11.846Z,74.03
2018-03-23T04:53:40.192Z,74.33
2018-03-23T04:56:08.548Z,74.54
2018-03-23T04:58:36.905Z,74.63
2018-03-23T05:01:05.208Z,74.58
2018-03-23T05:03:34.306Z,74.53
2018-03-23T05:06:03.403Z,74.37
2018-03-23T05:08:32.471Z,74.22
2018-03-23T05:11:00.808Z,74.22
2018-03-23T05:13:29.112Z,74.10
2018-03-23T05:15:57.462Z,74.00
2018-03-23T05:18:26.563Z,73.73
2018-03-23T05:20:55.651Z,73.45
2018-03-23T05:23:24.747Z,73.39
2018-03-23T05:25:53.058Z,73.18
2018-03-23T05:28:21.449Z,72.64
2018-03-23T05:30:49.777Z,72.48
2018-03-23T05:33:18.903Z,72.26
2018-03-23T05:35:48.005Z,72.10
2018-03-23T05:38:17.109Z,72.23
2018-03-23T05:40:46.307Z,72.10
2018-03-23T05:43:15.387Z,71.83
2018-03-23T05:45:44.483Z,71.42
2018-03-23T05:48:12.785Z,71.20
2018-03-23T05:50:41.877Z,70.93
2018-03-23T05:53:10.993Z,70.86
2018-03-23T05:55:39.337Z,70.75
2018-03-23T05:58:07.644Z,70.51
2018-03-23T06:00:36.741Z,70.13
2018-03-23T06:03:05.828Z,69.79
2018-03-23T06:05:34.141Z,69.36
2018-03-23T06:08:03.223Z,69.23
2018-03-23T06:10:32.307Z,68.88
2018-03-23T06:13:00.635Z,68.90
2018-03-23T06:15:28.937Z,68.76
2018-03-23T06:17:57.275Z,68.42
2018-03-23T06:20:26.402Z,68.22
2018-03-23T06:22:54.819Z,68.13
2018-03-23T06:25:23.095Z,68.03
2018-03-23T06:27:52.072Z,67.86
2018-03-23T06:30:20.385Z,67.96
2018-03-23T06:32:48.703Z,67.95
2018-03-23T06:35:17.781Z,67.72
2018-03-23T06:37:46.099Z,67.46
2018-03-23T06:40:14.420Z,67.33
2018-03-23T06:42:42.733Z,67.30
2018-03-23T06:45:11.067Z,67.49
2018-03-23T06:47:39.385Z,67.54
2018-03-23T06:50:07.727Z,67.56
2018-03-23T06:52:36.047Z,67.71
2018-03-23T06:55:04.355Z,67.71
2018-03-23T06:57:33.469Z,67.69
2018-03-23T07:00:02.564Z,67.65
2018-03-23T07:02:30.905Z,67.76
2018-03-23T07:04:59.245Z,67.77
2018-03-23T07:07:27.558Z,67.75
2018-03-23T07:09:55.894Z,67.74
2018-03-23T07:12:25.051Z,67.59
2018-03-23T07:14:53.378Z,67.28
2018-03-23T07:17:21.723Z,67.09
2018-03-23T07:19:50.059Z,67.05
2018-03-23T07:22:18.391Z,66.88
2018-03-23T07:24:46.709Z,66.84
2018-03-23T07:27:15.041Z,66.79
2018-03-23T07:29:43.349Z,66.60
2018-03-23T07:32:11.719Z,66.31
2018-03-23T07:34:40.054Z,65.79
2018-03-23T07:37:08.386Z,65.73
2018-03-23T07:39:36.789Z,65.24
2018-03-23T07:42:05.155Z,65.08
2018-03-23T07:44:33.481Z,64.51
2018-03-23T07:47:01.793Z,64.17
2018-03-23T07:49:30.109Z,63.77
2018-03-23T07:51:58.438Z,63.20
2018-03-23T07:54:26.748Z,62.98
2018-03-23T07:56:55.079Z,62.65
2018-03-23T07:59:24.152Z,62.08
2018-03-23T08:01:53.348Z,61.42
2018-03-23T08:04:21.661Z,61.29
2018-03-23T08:06:50.775Z,60.62
2018-03-23T08:09:19.849Z,60.64
2018-03-23T08:11:48.161Z,60.16
2018-03-23T08:14:16.477Z,60.40
2018-03-23T08:16:44.804Z,59.95
2018-03-23T08:19:13.131Z,59.34
2018-03-23T08:21:41.447Z,58.82
2018-03-23T08:24:09.787Z,58.42
2018-03-23T08:26:38.107Z,58.23
2018-03-23T08:29:06.418Z,57.89
2018-03-23T08:31:35.506Z,58.06
2018-03-23T08:34:04.671Z,57.72
2018-03-23T08:36:33.003Z,57.59
2018-03-23T08:39:02.083Z,57.42
2018-03-23T08:41:31.231Z,57.54
2018-03-23T08:43:59.564Z,57.37
2018-03-23T08:46:27.889Z,56.86
2018-03-23T08:48:56.212Z,56.50
2018-03-23T08:51:24.557Z,56.14
2018-03-23T08:53:52.878Z,55.45
2018-03-23T08:56:21.203Z,55.24
2018-03-23T08:58:49.549Z,53.75
2018-03-23T09:01:17.889Z,52.78
2018-03-23T09:03:46.247Z,51.44
2018-03-23T09:06:15.333Z,50.12
2018-03-23T09:08:43.684Z,48.96
2018-03-23T09:11:12.054Z,48.36
2018-03-23T09:13:40.366Z,46.31
2018-03-23T09:16:08.767Z,44.50
2018-03-23T09:18:37.847Z,44.18
2018-03-23T09:21:06.161Z,44.08
2018-03-23T09:23:35.269Z,43.21
2018-03-23T09:26:04.351Z,42.49
2018-03-23T09:28:33.448Z,42.46
2018-03-23T09:31:02.549Z,42.08
2018-03-23T09:33:31.631Z,41.19
2018-03-23T09:35:59.950Z,41.18
2018-03-23T09:38:28.287Z,40.23
2018-03-23T09:40:56.641Z,39.61
2018-03-23T09:43:24.971Z,39.02
2018-03-23T09:45:53.305Z,38.63
2018-03-23T09:48:21.654Z,38.52
2018-03-23T09:50:49.972Z,38.53
2018-03-23T09:53:18.272Z,37.58
2018-03-23T09:55:46.609Z,37.83
2018-03-23T09:58:14.941Z,37.88
2018-03-23T10:00:43.276Z,38.04
2018-03-23T10:03:11.626Z,37.86
2018-03-23T10:05:40.017Z,37.71
2018-03-23T10:08:09.112Z,37.79
2018-03-23T10:10:38.215Z,37.38
2018-03-23T10:13:06.538Z,37.33
2018-03-23T10:15:34.875Z,37.21
2018-03-23T10:18:03.193Z,37.42
2018-03-23T10:20:31.525Z,37.25
2018-03-23T10:22:59.823Z,37.33
2018-03-23T10:25:28.148Z,37.18
2018-03-23T10:27:56.493Z,37.15
2018-03-23T10:30:25.598Z,37.54
2018-03-23T10:32:54.675Z,37.82
2018-03-23T10:35:23.048Z,37.28
2018-03-23T10:37:51.363Z,37.33
2018-03-23T10:40:20.472Z,37.34
2018-03-23T10:42:48.789Z,37.55
2018-03-23T10:45:17.116Z,37.54
2018-03-23T10:47:45.438Z,37.68
2018-03-23T10:50:13.747Z,37.75
2018-03-23T10:52:42.146Z,37.70
2018-03-23T10:55:10.475Z,36.98
2018-03-23T10:57:38.802Z,36.60
2018-03-23T11:00:07.150Z,36.63
2018-03-23T11:02:49.972Z,36.48
2018-03-23T11:05:18.282Z,36.35
2018-03-23T11:07:47.581Z,36.94
2018-03-23T11:10:15.901Z,37.01
2018-03-23T11:12:44.986Z,36.95
2018-03-23T11:15:13.313Z,37.11
2018-03-23T11:17:41.642Z,37.48
2018-03-23T11:20:10.033Z,37.61
2018-03-23T11:22:38.368Z,37.96
2018-03-23T11:25:06.702Z,37.99
2018-03-23T11:27:35.018Z,38.28
2018-03-23T11:30:03.356Z,38.35
2018-03-23T11:32:32.420Z,37.74
2018-03-23T11:35:00.745Z,37.69
2018-03-23T11:37:29.822Z,37.27
2018-03-23T11:39:58.137Z,37.00
2018-03-23T11:42:27.376Z,36.88
2018-03-23T11:44:55.698Z,36.86
2018-03-23T11:47:24.008Z,37.22
2018-03-23T11:49:53.106Z,37.42
2018-03-23T11:52:21.424Z,37.36
2018-03-23T11:54:49.733Z,37.88
2018-03-23T11:57:18.054Z,37.83
2018-03-23T11:59:47.136Z,37.79
2018-03-23T12:02:16.314Z,37.85
2018-03-23T12:04:44.649Z,38.05
2018-03-23T12:07:13.731Z,38.04
2018-03-23T12:09:42.059Z,37.68
2018-03-23T12:12:10.364Z,37.24
2018-03-23T12:14:38.698Z,36.57
2018-03-23T12:17:07.032Z,36.32
2018-03-23T12:19:35.368Z,35.93
2018-03-23T12:22:03.716Z,35.86
2018-03-23T12:24:32.034Z,35.44
2018-03-23T12:27:00.372Z,35.82
2018-03-23T12:29:28.712Z,35.83
2018-03-23T12:31:57.061Z,35.95
2018-03-23T12:34:26.144Z,36.34
2018-03-23T12:36:54.474Z,36.97
2018-03-23T12:39:22.822Z,38.06
2018-03-23T12:41:51.156Z,38.55
2018-03-23T12:44:19.469Z,39.42
2018-03-23T12:46:47.787Z,40.07
2018-03-23T12:49:16.872Z,40.54
2018-03-23T12:51:46.060Z,41.22
2018-03-23T12:54:14.542Z,41.73
2018-03-23T12:56:42.863Z,41.75
2018-03-23T12:59:11.213Z,41.83
2018-03-23T13:01:39.610Z,41.96
2018-03-23T13:04:09.398Z,42.04
2018-03-23T13:06:37.725Z,42.09
2018-03-23T13:09:06.063Z,42.07
2018-03-23T13:11:34.545Z,42.64
2018-03-23T13:14:02.862Z,43.11
2018-03-23T13:16:31.956Z,43.50
2018-03-23T13:19:01.062Z,43.28
2018-03-23T13:21:29.454Z,43.32
2018-03-23T13:23:57.830Z,43.58
2018-03-23T13:26:26.924Z,44.13
2018-03-23T13:28:56.107Z,44.65
2018-03-23T13:31:24.463Z,45.05
2018-03-23T13:33:52.867Z,45.40
2018-03-23T13:36:21.186Z,45.96
2018-03-23T13:38:50.250Z,46.30
2018-03-23T13:41:18.567Z,46.58
2018-03-23T13:43:47.690Z,46.67
2018-03-23T13:46:16.075Z,47.09
2018-03-23T13:48:44.388Z,47.58
2018-03-23T13:51:12.717Z,47.79
2018-03-23T13:53:41.810Z,48.04
2018-03-23T13:56:10.962Z,47.88
2018-03-23T13:58:44.671Z,48.16
2018-03-23T14:01:19.016Z,48.03
2018-03-23T14:03:47.328Z,48.22
2018-03-23T14:06:15.648Z,48.15
2018-03-23T14:08:43.975Z,48.28
2018-03-23T14:11:13.063Z,49.00
2018-03-23T14:13:41.423Z,49.23
2018-03-23T14:16:09.759Z,49.40
2018-03-23T14:18:38.080Z,49.52
2018-03-23T14:21:06.394Z,50.00
2018-03-23T14:23:35.471Z,50.34
2018-03-23T14:26:03.810Z,50.58
2018-03-23T14:28:32.235Z,50.91
2018-03-23T14:31:00.487Z,51.08
2018-03-23T14:33:28.821Z,51.50
2018-03-23T14:35:57.136Z,51.61
2018-03-23T14:38:25.449Z,51.99
2018-03-23T14:40:53.781Z,52.35
2018-03-23T14:43:22.855Z,52.11
2018-03-23T14:45:51.173Z,52.26
2018-03-23T14:48:20.265Z,52.70
2018-03-23T14:50:49.383Z,52.84
2018-03-23T14:53:17.701Z,53.18
2018-03-23T14:55:46.042Z,53.46
2018-03-23T14:58:15.122Z,53.78
2018-03-23T15:00:44.298Z,53.77
2018-03-23T15:03:12.644Z,53.90
2018-03-23T15:05:40.955Z,53.79
2018-03-23T15:08:09.274Z,53.92
2018-03-23T15:10:38.463Z,54.18
2018-03-23T15:13:06.741Z,54.18
2018-03-23T15:15:35.071Z,54.13
2018-03-23T15:18:03.443Z,54.62
2018-03-23T15:20:31.810Z,55.02
2018-03-23T15:23:00.911Z,55.43
2018-03-23T15:25:30.015Z,55.82
2018-03-23T15:27:58.379Z,55.83
2018-03-23T15:30:26.697Z,55.88
2018-03-23T15:32:55.010Z,55.98
2018-03-23T15:35:24.090Z,56.05
2018-03-23T15:37:52.408Z,56.31
2018-03-23T15:40:20.803Z,56.74
2018-03-23T15:42:49.131Z,57.02
2018-03-23T15:45:17.455Z,57.20
2018-03-23T15:47:45.787Z,57.08
2018-03-23T15:50:14.120Z,57.50
2018-03-23T15:52:42.589Z,57.73
2018-03-23T15:55:10.927Z,57.75
2018-03-23T15:57:40.065Z,57.55
2018-03-23T16:00:08.480Z,57.65
2018-03-23T16:02:36.852Z,57.92
2018-03-23T16:05:05.309Z,58.23
2018-03-23T16:07:33.647Z,58.42
2018-03-23T16:10:01.965Z,58.68
2018-03-23T16:12:30.313Z,58.84
2018-03-23T16:14:58.643Z,58.89
2018-03-23T16:17:26.971Z,59.19
2018-03-23T16:19:55.316Z,59.50
2018-03-23T16:22:23.754Z,59.66
2018-03-23T16:24:52.843Z,59.48
2018-03-23T16:27:21.213Z,59.42
2018-03-23T16:29:49.553Z,59.44
2018-03-23T16:32:17.948Z,59.58
2018-03-23T16:34:46.277Z,59.83
2018-03-23T16:37:15.365Z,60.10
2018-03-23T16:39:43.695Z,60.18
2018-03-23T16:42:11.997Z,60.34
2018-03-23T16:44:40.350Z,60.50
2018-03-23T16:47:08.677Z,60.74
2018-03-23T16:49:37.018Z,60.84
2018-03-23T16:52:05.431Z,61.22
2018-03-23T16:54:33.836Z,61.42
2018-03-23T16:57:02.192Z,61.65
2018-03-23T16:59:30.537Z,61.97
2018-03-23T17:01:58.941Z,62.25
2018-03-23T17:04:27.984Z,62.44
2018-03-23T17:06:56.332Z,62.59
2018-03-23T17:09:24.738Z,62.96
2018-03-23T17:11:53.161Z,63.13
2018-03-23T17:14:22.245Z,63.58
2018-03-23T17:16:50.615Z,63.76
2018-03-23T17:19:18.945Z,63.91
2018-03-23T17:21:47.347Z,64.07
2018-03-23T17:24:15.772Z,64.33
2018-03-23T17:26:44.987Z,64.49
2018-03-23T17:29:14.219Z,64.62
2018-03-23T17:31:42.686Z,64.75
2018-03-23T17:34:11.810Z,64.80
2018-03-23T17:36:40.282Z,64.99
2018-03-23T17:39:08.655Z,65.11
2018-03-23T17:41:37.944Z,65.37
2018-03-23T17:44:06.297Z,65.46
2018-03-23T17:46:34.837Z,65.65
2018-03-23T17:49:03.274Z,65.90
2018-03-23T17:51:31.713Z,66.18
2018-03-23T17:54:00.117Z,66.36
2018-03-23T17:56:28.478Z,66.55
2018-03-23T17:58:56.792Z,66.69
2018-03-23T18:01:25.253Z,66.85
2018-03-23T18:03:53.699Z,66.93
2018-03-23T18:06:22.867Z,66.99
2018-03-23T18:08:51.192Z,67.19
2018-03-23T18:11:19.701Z,67.46
2018-03-23T18:13:48.243Z,67.65
2018-03-23T18:16:16.768Z,67.67
2018-03-23T18:18:45.237Z,67.71
2018-03-23T18:21:14.683Z,67.69
2018-03-23T18:23:43.783Z,67.68
2018-03-23T18:26:12.315Z,67.82
2018-03-23T18:28:41.660Z,67.96
2018-03-23T18:31:10.029Z,67.98
2018-03-23T18:33:39.367Z,68.03
2018-03-23T18:36:07.905Z,68.03
2018-03-23T18:38:36.269Z,67.96
2018-03-23T18:41:04.615Z,67.93
2018-03-23T18:43:33.035Z,67.98
2018-03-23T18:46:01.384Z,67.86
2018-03-23T18:48:29.830Z,67.80
2018-03-23T18:50:58.214Z,67.72
2018-03-23T18:53:26.542Z,67.81
2018-03-23T18:55:54.878Z,68.01
2018-03-23T18:58:23.270Z,68.06
2018-03-23T19:00:52.585Z,68.05
2018-03-23T19:03:21.154Z,68.19
2018-03-23T19:05:49.496Z,68.19
2018-03-23T19:08:18.049Z,68.18
2018-03-23T19:10:47.570Z,68.19
2018-03-23T19:13:16.904Z,68.27
2018-03-23T19:15:45.677Z,68.23
2018-03-23T19:18:14.271Z,68.15
2018-03-23T19:20:42.638Z,68.25
2018-03-23T19:23:10.966Z,68.29
2018-03-23T19:25:39.484Z,68.36
2018-03-23T19:28:08.076Z,68.35
2018-03-23T19:30:36.705Z,68.36
2018-03-23T19:33:05.255Z,68.29
2018-03-23T19:35:33.835Z,68.25
2018-03-23T19:38:02.436Z,68.29
2018-03-23T19:40:30.829Z,68.41
2018-03-23T19:42:59.201Z,68.46
2018-03-23T19:45:27.514Z,68.53
2018-03-23T19:47:56.045Z,68.49
2018-03-23T19:50:24.679Z,68.44
2018-03-23T19:52:53.242Z,68.40
2018-03-23T19:55:21.589Z,68.31
2018-03-23T19:57:50.149Z,68.25
2018-03-23T20:00:18.493Z,68.27
2018-03-23T20:02:47.929Z,68.44
2018-03-23T20:05:16.577Z,68.71
2018-03-23T20:07:45.109Z,69.06
2018-03-23T20:10:13.563Z,69.70
2018-03-23T20:12:42.790Z,70.14
2018-03-23T20:15:11.116Z,70.22
2018-03-23T20:17:45.076Z,70.38
2018-03-23T20:20:18.849Z,70.43
2018-03-23T20:22:47.200Z,70.50
2018-03-23T20:25:16.324Z,70.57
2018-03-23T20:27:50.331Z,70.59
2018-03-23T20:30:18.639Z,70.67
2018-03-23T20:32:47.703Z,70.68
2018-03-23T20:35:16.132Z,70.66
2018-03-23T20:37:44.477Z,70.61
2018-03-23T20:40:12.828Z,70.59
2018-03-23T20:42:41.164Z,70.55
2018-03-23T20:45:10.274Z,70.53
2018-03-23T20:47:39.531Z,70.47
2018-03-23T20:50:07.866Z,70.43
2018-03-23T20:52:37.105Z,70.33
2018-03-23T20:55:05.441Z,70.28
2018-03-23T20:57:34.647Z,70.22
2018-03-23T21:00:02.969Z,70.20
2018-03-23T21:02:31.286Z,70.16
2018-03-23T21:04:59.587Z,70.17
2018-03-23T21:07:28.763Z,70.23
2018-03-23T21:09:57.128Z,70.24
2018-03-23T21:12:25.660Z,70.17
2018-03-23T21:14:55.150Z,70.15
2018-03-23T21:17:24.243Z,70.09
2018-03-23T21:19:52.640Z,70.06
2018-03-23T21:22:21.854Z,70.20
2018-03-23T21:24:50.217Z,70.36
2018-03-23T21:27:18.731Z,70.37
2018-03-23T21:29:47.078Z,70.36
2018-03-23T21:32:15.415Z,70.48
2018-03-23T21:34:43.727Z,70.63
2018-03-23T21:37:12.102Z,70.68
2018-03-23T21:39:40.474Z,70.86
2018-03-23T21:42:08.802Z,70.99
2018-03-23T21:44:37.146Z,71.06
2018-03-23T21:47:05.476Z,71.14
2018-03-23T21:49:33.888Z,71.15
2018-03-23T21:52:02.194Z,71.23
2018-03-23T21:54:30.558Z,71.23
2018-03-23T21:56:58.894Z,71.12
2018-03-23T21:59:27.203Z,70.99
2018-03-23T22:01:56.277Z,70.92
2018-03-23T22:04:24.692Z,70.95
2018-03-23T22:06:53.817Z,70.92
2018-03-23T22:09:22.160Z,70.91
2018-03-23T22:11:51.298Z,70.88
2018-03-23T22:14:19.604Z,70.77
2018-03-23T22:16:47.944Z,70.72
2018-03-23T22:19:16.319Z,70.77
2018-03-23T22:21:45.470Z,70.84
2018-03-23T22:24:13.848Z,70.96
2018-03-23T22:26:42.945Z,71.08
2018-03-23T22:29:12.256Z,71.23
2018-03-23T22:31:40.609Z,71.53
2018-03-23T22:34:08.919Z,71.69
2018-03-23T22:36:37.252Z,71.74
2018-03-23T22:39:06.358Z,71.77
2018-03-23T22:41:35.428Z,72.06
2018-03-23T22:44:03.754Z,72.36
2018-03-23T22:46:32.071Z,72.47
2018-03-23T22:49:00.415Z,72.59
2018-03-23T22:51:28.817Z,72.64
2018-03-23T22:53:57.757Z,72.81
2018-03-23T22:56:26.093Z,72.83
2018-03-23T22:58:54.430Z,73.07
2018-03-23T23:01:23.570Z,73.27
2018-03-23T23:03:51.932Z,73.60
2018-03-23T23:06:21.052Z,73.79
2018-03-23T23:08:49.399Z,74.05
2018-03-23T23:11:18.515Z,74.22
2018-03-23T23:13:47.628Z,74.29
2018-03-23T23:16:15.923Z,74.39
2018-03-23T23:18:44.220Z,74.61
2018-03-23T23:21:12.530Z,74.65
2018-03-23T23:23:41.640Z,74.68
2018-03-23T23:26:10.749Z,74.62
2018-03-23T23:28:39.856Z,74.55
2018-03-23T23:31:08.941Z,74.60
2018-03-23T23:33:37.282Z,74.51
2018-03-23T23:36:05.602Z,74.57
2018-03-23T23:38:33.958Z,74.65
2018-03-23T23:41:02.291Z,74.75
2018-03-23T23:43:31.370Z,74.77
2018-03-23T23:45:59.699Z,74.83
2018-03-23T23:48:28.030Z,74.92
2018-03-23T23:50:56.360Z,74.92
2018-03-23T23:53:24.708Z,74.82
2018-03-23T23:55:53.806Z,74.69
2018-03-23T23:58:22.890Z,74.59
